sensor_id;sensor_type;location;lat;lon;timestamp;P1;durP1;ratioP1;P2;durP2;ratioP2
71490;SDS011;59307;50.060;9.150;2022-12-07T00:01:54;18.43;;;8.77;;
71490;SDS011;59307;50.060;9.150;2022-12-07T00:04:20;20.87;;;8.53;;
71490;SDS011;59307;50.060;9.150;2022-12-07T00:06:45;20.00;;;8.63;;
71490;SDS011;59307;50.060;9.150;2022-12-07T00:09:12;23.27;;;8.98;;
71490;SDS011;59307;50.060;9.150;2022-12-07T00:11:38;22.80;;;8.87;;
71490;SDS011;59307;50.060;9.150;2022-12-07T00:14:05;20.50;;;8.47;;
71490;SDS011;59307;50.060;9.150;2022-12-07T00:16:31;20.65;;;8.35;;
71490;SDS011;59307;50.060;9.150;2022-12-07T00:18:57;19.95;;;9.02;;
71490;SDS011;59307;50.060;9.150;2022-12-07T00:21:24;20.13;;;8.63;;
71490;SDS011;59307;50.060;9.150;2022-12-07T00:23:50;21.98;;;9.15;;
71490;SDS011;59307;50.060;9.150;2022-12-07T00:26:16;20.80;;;9.05;;
71490;SDS011;59307;50.060;9.150;2022-12-07T00:28:49;22.20;;;8.98;;
71490;SDS011;59307;50.060;9.150;2022-12-07T00:31:15;24.13;;;9.57;;
71490;SDS011;59307;50.060;9.150;2022-12-07T00:33:40;23.63;;;11.38;;
71490;SDS011;59307;50.060;9.150;2022-12-07T00:36:10;23.97;;;10.13;;
71490;SDS011;59307;50.060;9.150;2022-12-07T00:38:37;22.42;;;10.15;;
71490;SDS011;59307;50.060;9.150;2022-12-07T00:41:12;25.40;;;10.07;;
71490;SDS011;59307;50.060;9.150;2022-12-07T00:43:38;21.67;;;9.30;;
71490;SDS011;59307;50.060;9.150;2022-12-07T00:46:04;25.67;;;10.50;;
71490;SDS011;59307;50.060;9.150;2022-12-07T00:48:29;21.53;;;9.60;;
71490;SDS011;59307;50.060;9.150;2022-12-07T00:50:54;22.23;;;9.23;;
71490;SDS011;59307;50.060;9.150;2022-12-07T00:53:19;23.87;;;9.50;;
71490;SDS011;59307;50.060;9.150;2022-12-07T00:55:45;24.00;;;9.48;;
71490;SDS011;59307;50.060;9.150;2022-12-07T00:58:10;22.17;;;9.33;;
71490;SDS011;59307;50.060;9.150;2022-12-07T01:00:37;20.00;;;9.07;;
71490;SDS011;59307;50.060;9.150;2022-12-07T01:03:03;21.40;;;9.40;;
71490;SDS011;59307;50.060;9.150;2022-12-07T01:05:28;26.02;;;10.00;;
71490;SDS011;59307;50.060;9.150;2022-12-07T01:07:53;21.60;;;10.13;;
71490;SDS011;59307;50.060;9.150;2022-12-07T01:10:18;22.70;;;9.93;;
71490;SDS011;59307;50.060;9.150;2022-12-07T01:12:44;26.63;;;10.37;;
71490;SDS011;59307;50.060;9.150;2022-12-07T01:15:09;25.20;;;10.47;;
71490;SDS011;59307;50.060;9.150;2022-12-07T01:17:34;24.70;;;11.20;;
71490;SDS011;59307;50.060;9.150;2022-12-07T01:20:00;23.70;;;9.50;;
71490;SDS011;59307;50.060;9.150;2022-12-07T01:22:25;24.13;;;10.40;;
71490;SDS011;59307;50.060;9.150;2022-12-07T01:24:51;26.43;;;9.90;;
71490;SDS011;59307;50.060;9.150;2022-12-07T01:27:16;24.80;;;11.10;;
71490;SDS011;59307;50.060;9.150;2022-12-07T01:29:41;26.33;;;10.83;;
71490;SDS011;59307;50.060;9.150;2022-12-07T01:32:06;28.43;;;11.57;;
71490;SDS011;59307;50.060;9.150;2022-12-07T01:34:32;23.70;;;10.63;;
71490;SDS011;59307;50.060;9.150;2022-12-07T01:36:57;23.87;;;11.07;;
71490;SDS011;59307;50.060;9.150;2022-12-07T01:39:22;28.40;;;11.47;;
71490;SDS011;59307;50.060;9.150;2022-12-07T01:41:47;24.37;;;10.80;;
71490;SDS011;59307;50.060;9.150;2022-12-07T01:44:25;21.33;;;10.20;;
71490;SDS011;59307;50.060;9.150;2022-12-07T01:49:21;26.53;;;11.20;;
71490;SDS011;59307;50.060;9.150;2022-12-07T01:51:47;29.30;;;11.73;;
71490;SDS011;59307;50.060;9.150;2022-12-07T01:54:14;29.27;;;11.73;;
71490;SDS011;59307;50.060;9.150;2022-12-07T01:56:40;26.48;;;12.02;;
71490;SDS011;59307;50.060;9.150;2022-12-07T01:59:07;34.03;;;14.73;;
71490;SDS011;59307;50.060;9.150;2022-12-07T02:01:32;34.23;;;12.57;;
71490;SDS011;59307;50.060;9.150;2022-12-07T02:03:58;30.67;;;12.23;;
71490;SDS011;59307;50.060;9.150;2022-12-07T02:06:23;26.13;;;11.37;;
71490;SDS011;59307;50.060;9.150;2022-12-07T02:08:49;28.38;;;11.80;;
71490;SDS011;59307;50.060;9.150;2022-12-07T02:11:14;30.10;;;11.17;;
71490;SDS011;59307;50.060;9.150;2022-12-07T02:13:40;28.20;;;11.63;;
71490;SDS011;59307;50.060;9.150;2022-12-07T02:16:29;26.67;;;10.90;;
71490;SDS011;59307;50.060;9.150;2022-12-07T02:21:43;27.97;;;10.90;;
71490;SDS011;59307;50.060;9.150;2022-12-07T02:29:22;26.80;;;10.93;;
71490;SDS011;59307;50.060;9.150;2022-12-07T02:31:56;23.60;;;10.73;;
71490;SDS011;59307;50.060;9.150;2022-12-07T02:36:58;26.77;;;11.20;;
71490;SDS011;59307;50.060;9.150;2022-12-07T02:39:31;27.35;;;11.95;;
71490;SDS011;59307;50.060;9.150;2022-12-07T02:42:01;22.10;;;11.03;;
71490;SDS011;59307;50.060;9.150;2022-12-07T02:44:27;27.35;;;11.18;;
71490;SDS011;59307;50.060;9.150;2022-12-07T02:47:03;25.13;;;10.95;;
71490;SDS011;59307;50.060;9.150;2022-12-07T02:49:30;24.33;;;10.25;;
71490;SDS011;59307;50.060;9.150;2022-12-07T02:51:56;20.60;;;9.87;;
71490;SDS011;59307;50.060;9.150;2022-12-07T02:54:21;28.02;;;10.65;;
71490;SDS011;59307;50.060;9.150;2022-12-07T02:56:48;32.37;;;11.63;;
71490;SDS011;59307;50.060;9.150;2022-12-07T03:07:32;24.65;;;10.77;;
71490;SDS011;59307;50.060;9.150;2022-12-07T03:12:31;26.70;;;11.17;;
71490;SDS011;59307;50.060;9.150;2022-12-07T03:15:18;26.73;;;11.25;;
71490;SDS011;59307;50.060;9.150;2022-12-07T03:17:44;24.67;;;11.05;;
71490;SDS011;59307;50.060;9.150;2022-12-07T03:20:11;25.67;;;10.98;;
71490;SDS011;59307;50.060;9.150;2022-12-07T03:22:38;24.80;;;10.63;;
71490;SDS011;59307;50.060;9.150;2022-12-07T03:25:09;23.93;;;10.47;;
71490;SDS011;59307;50.060;9.150;2022-12-07T03:27:57;26.85;;;11.32;;
71490;SDS011;59307;50.060;9.150;2022-12-07T03:30:26;25.73;;;11.15;;
71490;SDS011;59307;50.060;9.150;2022-12-07T03:35:19;28.13;;;11.90;;
71490;SDS011;59307;50.060;9.150;2022-12-07T03:40:26;24.03;;;10.47;;
71490;SDS011;59307;50.060;9.150;2022-12-07T03:42:53;24.57;;;10.83;;
71490;SDS011;59307;50.060;9.150;2022-12-07T03:45:19;25.10;;;11.60;;
71490;SDS011;59307;50.060;9.150;2022-12-07T03:48:06;23.27;;;9.77;;
71490;SDS011;59307;50.060;9.150;2022-12-07T03:50:42;25.95;;;10.80;;
71490;SDS011;59307;50.060;9.150;2022-12-07T03:53:19;23.63;;;10.80;;
71490;SDS011;59307;50.060;9.150;2022-12-07T03:55:45;26.58;;;11.30;;
71490;SDS011;59307;50.060;9.150;2022-12-07T03:58:16;24.88;;;10.20;;
71490;SDS011;59307;50.060;9.150;2022-12-07T04:00:41;22.77;;;10.25;;
71490;SDS011;59307;50.060;9.150;2022-12-07T04:03:07;22.83;;;9.65;;
71490;SDS011;59307;50.060;9.150;2022-12-07T04:05:32;21.37;;;10.00;;
71490;SDS011;59307;50.060;9.150;2022-12-07T04:07:57;22.43;;;9.93;;
71490;SDS011;59307;50.060;9.150;2022-12-07T04:10:23;25.13;;;10.57;;
71490;SDS011;59307;50.060;9.150;2022-12-07T04:12:48;21.53;;;9.23;;
71490;SDS011;59307;50.060;9.150;2022-12-07T04:15:13;25.27;;;10.73;;
71490;SDS011;59307;50.060;9.150;2022-12-07T04:17:38;25.03;;;10.80;;
71490;SDS011;59307;50.060;9.150;2022-12-07T04:20:04;21.63;;;10.00;;
71490;SDS011;59307;50.060;9.150;2022-12-07T04:22:30;25.50;;;11.10;;
71490;SDS011;59307;50.060;9.150;2022-12-07T04:24:55;22.23;;;10.40;;
71490;SDS011;59307;50.060;9.150;2022-12-07T04:27:20;26.13;;;11.00;;
71490;SDS011;59307;50.060;9.150;2022-12-07T04:29:45;25.83;;;10.37;;
71490;SDS011;59307;50.060;9.150;2022-12-07T04:32:10;24.80;;;10.47;;
71490;SDS011;59307;50.060;9.150;2022-12-07T04:34:36;21.60;;;9.80;;
71490;SDS011;59307;50.060;9.150;2022-12-07T04:37:01;26.00;;;10.67;;
71490;SDS011;59307;50.060;9.150;2022-12-07T04:39:30;21.43;;;9.40;;
71490;SDS011;59307;50.060;9.150;2022-12-07T04:41:56;25.15;;;9.93;;
71490;SDS011;59307;50.060;9.150;2022-12-07T04:44:21;23.47;;;10.43;;
71490;SDS011;59307;50.060;9.150;2022-12-07T04:46:47;23.55;;;10.10;;
71490;SDS011;59307;50.060;9.150;2022-12-07T04:49:13;23.43;;;10.33;;
71490;SDS011;59307;50.060;9.150;2022-12-07T04:51:38;26.83;;;10.27;;
71490;SDS011;59307;50.060;9.150;2022-12-07T04:54:03;23.53;;;10.83;;
71490;SDS011;59307;50.060;9.150;2022-12-07T04:56:29;24.00;;;9.93;;
71490;SDS011;59307;50.060;9.150;2022-12-07T04:58:54;21.77;;;9.30;;
71490;SDS011;59307;50.060;9.150;2022-12-07T05:01:19;23.40;;;10.83;;
71490;SDS011;59307;50.060;9.150;2022-12-07T05:03:45;22.15;;;9.63;;
71490;SDS011;59307;50.060;9.150;2022-12-07T05:06:10;22.23;;;9.37;;
71490;SDS011;59307;50.060;9.150;2022-12-07T05:08:36;25.57;;;10.97;;
71490;SDS011;59307;50.060;9.150;2022-12-07T05:11:01;21.40;;;9.17;;
71490;SDS011;59307;50.060;9.150;2022-12-07T05:13:27;23.33;;;10.88;;
71490;SDS011;59307;50.060;9.150;2022-12-07T05:15:52;23.40;;;9.97;;
71490;SDS011;59307;50.060;9.150;2022-12-07T05:18:18;25.67;;;9.27;;
71490;SDS011;59307;50.060;9.150;2022-12-07T05:20:43;25.20;;;10.77;;
71490;SDS011;59307;50.060;9.150;2022-12-07T05:23:08;21.17;;;9.38;;
71490;SDS011;59307;50.060;9.150;2022-12-07T05:25:34;24.43;;;9.30;;
71490;SDS011;59307;50.060;9.150;2022-12-07T05:27:59;24.77;;;9.40;;
71490;SDS011;59307;50.060;9.150;2022-12-07T05:30:25;21.60;;;8.63;;
71490;SDS011;59307;50.060;9.150;2022-12-07T05:32:50;21.52;;;9.40;;
71490;SDS011;59307;50.060;9.150;2022-12-07T05:35:16;20.60;;;8.53;;
71490;SDS011;59307;50.060;9.150;2022-12-07T05:37:41;21.60;;;9.03;;
71490;SDS011;59307;50.060;9.150;2022-12-07T05:40:06;24.83;;;9.20;;
71490;SDS011;59307;50.060;9.150;2022-12-07T05:42:32;23.80;;;9.27;;
71490;SDS011;59307;50.060;9.150;2022-12-07T05:44:57;21.93;;;8.70;;
71490;SDS011;59307;50.060;9.150;2022-12-07T05:47:22;22.23;;;8.37;;
71490;SDS011;59307;50.060;9.150;2022-12-07T05:49:47;18.97;;;7.27;;
71490;SDS011;59307;50.060;9.150;2022-12-07T05:52:13;20.63;;;8.93;;
71490;SDS011;59307;50.060;9.150;2022-12-07T05:54:38;19.47;;;8.37;;
71490;SDS011;59307;50.060;9.150;2022-12-07T05:57:03;17.27;;;7.80;;
71490;SDS011;59307;50.060;9.150;2022-12-07T05:59:28;19.87;;;8.20;;
71490;SDS011;59307;50.060;9.150;2022-12-07T06:04:19;19.73;;;8.27;;
71490;SDS011;59307;50.060;9.150;2022-12-07T06:06:45;18.15;;;8.05;;
71490;SDS011;59307;50.060;9.150;2022-12-07T06:09:10;15.63;;;7.53;;
71490;SDS011;59307;50.060;9.150;2022-12-07T06:11:37;19.88;;;7.95;;
71490;SDS011;59307;50.060;9.150;2022-12-07T06:14:21;18.77;;;7.07;;
71490;SDS011;59307;50.060;9.150;2022-12-07T06:16:46;16.13;;;7.47;;
71490;SDS011;59307;50.060;9.150;2022-12-07T06:19:11;16.90;;;7.40;;
71490;SDS011;59307;50.060;9.150;2022-12-07T06:21:37;21.60;;;8.43;;
71490;SDS011;59307;50.060;9.150;2022-12-07T06:24:02;14.50;;;6.70;;
71490;SDS011;59307;50.060;9.150;2022-12-07T06:26:27;20.30;;;7.80;;
71490;SDS011;59307;50.060;9.150;2022-12-07T06:28:53;18.83;;;7.60;;
71490;SDS011;59307;50.060;9.150;2022-12-07T06:31:18;17.10;;;7.07;;
71490;SDS011;59307;50.060;9.150;2022-12-07T06:33:43;17.80;;;7.93;;
71490;SDS011;59307;50.060;9.150;2022-12-07T06:36:08;16.87;;;7.13;;
71490;SDS011;59307;50.060;9.150;2022-12-07T06:38:34;17.87;;;8.80;;
71490;SDS011;59307;50.060;9.150;2022-12-07T06:40:59;19.17;;;8.23;;
71490;SDS011;59307;50.060;9.150;2022-12-07T06:43:24;16.80;;;7.13;;
71490;SDS011;59307;50.060;9.150;2022-12-07T06:45:49;18.60;;;7.63;;
71490;SDS011;59307;50.060;9.150;2022-12-07T06:48:15;19.00;;;8.00;;
71490;SDS011;59307;50.060;9.150;2022-12-07T06:50:41;19.57;;;7.97;;
71490;SDS011;59307;50.060;9.150;2022-12-07T06:53:06;15.97;;;7.07;;
71490;SDS011;59307;50.060;9.150;2022-12-07T06:55:31;17.30;;;7.33;;
71490;SDS011;59307;50.060;9.150;2022-12-07T06:57:56;17.60;;;7.83;;
71490;SDS011;59307;50.060;9.150;2022-12-07T07:00:21;18.37;;;7.90;;
71490;SDS011;59307;50.060;9.150;2022-12-07T07:02:47;17.37;;;6.90;;
71490;SDS011;59307;50.060;9.150;2022-12-07T07:05:12;18.53;;;8.80;;
71490;SDS011;59307;50.060;9.150;2022-12-07T07:07:37;16.70;;;7.90;;
71490;SDS011;59307;50.060;9.150;2022-12-07T07:10:02;19.73;;;8.97;;
71490;SDS011;59307;50.060;9.150;2022-12-07T07:12:27;21.03;;;9.07;;
71490;SDS011;59307;50.060;9.150;2022-12-07T07:14:53;17.47;;;7.93;;
71490;SDS011;59307;50.060;9.150;2022-12-07T07:17:18;18.60;;;8.23;;
71490;SDS011;59307;50.060;9.150;2022-12-07T07:19:43;19.17;;;8.27;;
71490;SDS011;59307;50.060;9.150;2022-12-07T07:22:08;23.03;;;8.93;;
71490;SDS011;59307;50.060;9.150;2022-12-07T07:24:33;17.20;;;7.93;;
71490;SDS011;59307;50.060;9.150;2022-12-07T07:26:59;18.97;;;8.73;;
71490;SDS011;59307;50.060;9.150;2022-12-07T07:29:24;19.30;;;8.97;;
71490;SDS011;59307;50.060;9.150;2022-12-07T07:31:49;20.67;;;8.97;;
71490;SDS011;59307;50.060;9.150;2022-12-07T07:34:14;17.50;;;8.23;;
71490;SDS011;59307;50.060;9.150;2022-12-07T07:36:39;21.33;;;8.37;;
71490;SDS011;59307;50.060;9.150;2022-12-07T07:39:04;20.83;;;8.77;;
71490;SDS011;59307;50.060;9.150;2022-12-07T07:41:30;19.60;;;9.07;;
71490;SDS011;59307;50.060;9.150;2022-12-07T07:43:55;20.42;;;9.10;;
71490;SDS011;59307;50.060;9.150;2022-12-07T07:46:20;20.87;;;9.00;;
71490;SDS011;59307;50.060;9.150;2022-12-07T07:48:46;20.00;;;8.67;;
71490;SDS011;59307;50.060;9.150;2022-12-07T07:51:11;20.20;;;9.30;;
71490;SDS011;59307;50.060;9.150;2022-12-07T07:53:36;16.93;;;8.33;;
71490;SDS011;59307;50.060;9.150;2022-12-07T07:56:01;19.97;;;8.77;;
71490;SDS011;59307;50.060;9.150;2022-12-07T07:58:27;18.03;;;8.37;;
71490;SDS011;59307;50.060;9.150;2022-12-07T08:00:52;19.80;;;9.13;;
71490;SDS011;59307;50.060;9.150;2022-12-07T08:03:18;21.48;;;8.93;;
71490;SDS011;59307;50.060;9.150;2022-12-07T08:05:43;18.53;;;8.03;;
71490;SDS011;59307;50.060;9.150;2022-12-07T08:08:08;19.27;;;8.70;;
71490;SDS011;59307;50.060;9.150;2022-12-07T08:10:33;19.97;;;9.37;;
71490;SDS011;59307;50.060;9.150;2022-12-07T08:13:00;18.60;;;8.57;;
71490;SDS011;59307;50.060;9.150;2022-12-07T08:15:39;18.17;;;8.27;;
71490;SDS011;59307;50.060;9.150;2022-12-07T08:18:05;18.05;;;8.25;;
71490;SDS011;59307;50.060;9.150;2022-12-07T08:20:30;19.27;;;8.13;;
71490;SDS011;59307;50.060;9.150;2022-12-07T08:22:56;21.42;;;9.80;;
71490;SDS011;59307;50.060;9.150;2022-12-07T08:25:21;18.17;;;9.17;;
71490;SDS011;59307;50.060;9.150;2022-12-07T08:27:50;17.75;;;8.63;;
71490;SDS011;59307;50.060;9.150;2022-12-07T08:30:15;17.85;;;7.95;;
71490;SDS011;59307;50.060;9.150;2022-12-07T08:32:41;21.97;;;9.27;;
71490;SDS011;59307;50.060;9.150;2022-12-07T08:35:06;19.80;;;8.93;;
71490;SDS011;59307;50.060;9.150;2022-12-07T08:37:32;18.20;;;8.07;;
71490;SDS011;59307;50.060;9.150;2022-12-07T08:39:57;21.83;;;10.10;;
71490;SDS011;59307;50.060;9.150;2022-12-07T08:42:23;20.00;;;8.83;;
71490;SDS011;59307;50.060;9.150;2022-12-07T08:44:52;21.55;;;8.80;;
71490;SDS011;59307;50.060;9.150;2022-12-07T08:47:17;18.00;;;8.90;;
71490;SDS011;59307;50.060;9.150;2022-12-07T08:49:43;20.27;;;8.57;;
71490;SDS011;59307;50.060;9.150;2022-12-07T08:52:11;19.23;;;8.15;;
71490;SDS011;59307;50.060;9.150;2022-12-07T08:54:36;18.03;;;8.57;;
71490;SDS011;59307;50.060;9.150;2022-12-07T08:57:02;21.50;;;8.57;;
71490;SDS011;59307;50.060;9.150;2022-12-07T08:59:28;19.80;;;8.27;;
71490;SDS011;59307;50.060;9.150;2022-12-07T09:01:53;19.47;;;8.77;;
71490;SDS011;59307;50.060;9.150;2022-12-07T09:04:18;18.23;;;8.47;;
71490;SDS011;59307;50.060;9.150;2022-12-07T09:06:44;18.10;;;8.17;;
71490;SDS011;59307;50.060;9.150;2022-12-07T09:09:09;16.07;;;8.20;;
71490;SDS011;59307;50.060;9.150;2022-12-07T09:11:36;19.40;;;8.20;;
71490;SDS011;59307;50.060;9.150;2022-12-07T09:14:01;17.97;;;8.43;;
71490;SDS011;59307;50.060;9.150;2022-12-07T09:16:27;16.77;;;7.63;;
71490;SDS011;59307;50.060;9.150;2022-12-07T09:18:52;19.27;;;7.97;;
71490;SDS011;59307;50.060;9.150;2022-12-07T09:21:17;16.07;;;7.37;;
71490;SDS011;59307;50.060;9.150;2022-12-07T09:23:42;15.57;;;7.13;;
71490;SDS011;59307;50.060;9.150;2022-12-07T09:26:08;20.60;;;8.53;;
71490;SDS011;59307;50.060;9.150;2022-12-07T09:28:33;19.10;;;8.10;;
71490;SDS011;59307;50.060;9.150;2022-12-07T09:30:59;16.08;;;7.82;;
71490;SDS011;59307;50.060;9.150;2022-12-07T09:33:24;17.73;;;8.47;;
71490;SDS011;59307;50.060;9.150;2022-12-07T09:35:49;21.20;;;8.07;;
71490;SDS011;59307;50.060;9.150;2022-12-07T09:38:15;18.80;;;8.77;;
71490;SDS011;59307;50.060;9.150;2022-12-07T09:40:40;16.53;;;7.57;;
71490;SDS011;59307;50.060;9.150;2022-12-07T09:43:18;16.98;;;7.65;;
71490;SDS011;59307;50.060;9.150;2022-12-07T09:45:44;17.50;;;8.68;;
71490;SDS011;59307;50.060;9.150;2022-12-07T09:48:14;14.37;;;7.50;;
71490;SDS011;59307;50.060;9.150;2022-12-07T09:50:41;15.15;;;7.00;;
71490;SDS011;59307;50.060;9.150;2022-12-07T09:53:13;13.73;;;7.00;;
71490;SDS011;59307;50.060;9.150;2022-12-07T09:55:39;14.95;;;6.95;;
71490;SDS011;59307;50.060;9.150;2022-12-07T09:58:05;14.35;;;7.28;;
71490;SDS011;59307;50.060;9.150;2022-12-07T10:00:30;18.20;;;7.70;;
71490;SDS011;59307;50.060;9.150;2022-12-07T10:02:57;15.20;;;6.73;;
71490;SDS011;59307;50.060;9.150;2022-12-07T10:05:24;15.52;;;8.38;;
71490;SDS011;59307;50.060;9.150;2022-12-07T10:07:51;16.90;;;7.57;;
71490;SDS011;59307;50.060;9.150;2022-12-07T10:10:23;14.73;;;7.18;;
71490;SDS011;59307;50.060;9.150;2022-12-07T10:12:53;13.60;;;7.10;;
71490;SDS011;59307;50.060;9.150;2022-12-07T10:15:19;14.02;;;5.78;;
71490;SDS011;59307;50.060;9.150;2022-12-07T10:17:47;13.27;;;6.73;;
71490;SDS011;59307;50.060;9.150;2022-12-07T10:22:38;13.33;;;5.83;;
71490;SDS011;59307;50.060;9.150;2022-12-07T10:25:19;12.88;;;6.35;;
71490;SDS011;59307;50.060;9.150;2022-12-07T10:27:56;11.70;;;6.00;;
71490;SDS011;59307;50.060;9.150;2022-12-07T10:30:21;17.47;;;7.07;;
71490;SDS011;59307;50.060;9.150;2022-12-07T10:32:46;13.30;;;6.90;;
71490;SDS011;59307;50.060;9.150;2022-12-07T10:37:46;13.63;;;6.50;;
71490;SDS011;59307;50.060;9.150;2022-12-07T10:43:34;16.07;;;6.93;;
71490;SDS011;59307;50.060;9.150;2022-12-07T10:45:35;12.52;;;5.97;;
71490;SDS011;59307;50.060;9.150;2022-12-07T10:48:11;15.25;;;6.97;;
71490;SDS011;59307;50.060;9.150;2022-12-07T10:50:47;15.90;;;6.53;;
71490;SDS011;59307;50.060;9.150;2022-12-07T10:53:20;14.82;;;6.88;;
71490;SDS011;59307;50.060;9.150;2022-12-07T10:58:27;15.33;;;6.53;;
71490;SDS011;59307;50.060;9.150;2022-12-07T11:03:29;14.25;;;6.57;;
71490;SDS011;59307;50.060;9.150;2022-12-07T11:08:33;13.60;;;7.50;;
71490;SDS011;59307;50.060;9.150;2022-12-07T11:11:09;12.75;;;6.55;;
71490;SDS011;59307;50.060;9.150;2022-12-07T11:16:40;12.90;;;5.60;;
71490;SDS011;59307;50.060;9.150;2022-12-07T11:24:04;15.20;;;6.47;;
71490;SDS011;59307;50.060;9.150;2022-12-07T11:36:50;15.82;;;6.63;;
71490;SDS011;59307;50.060;9.150;2022-12-07T11:39:29;12.32;;;6.30;;
71490;SDS011;59307;50.060;9.150;2022-12-07T11:42:06;12.63;;;6.32;;
71490;SDS011;59307;50.060;9.150;2022-12-07T11:44:34;13.18;;;6.18;;
71490;SDS011;59307;50.060;9.150;2022-12-07T11:47:04;12.83;;;6.23;;
71490;SDS011;59307;50.060;9.150;2022-12-07T11:52:02;11.75;;;6.45;;
71490;SDS011;59307;50.060;9.150;2022-12-07T11:54:30;11.02;;;5.72;;
71490;SDS011;59307;50.060;9.150;2022-12-07T11:56:56;13.27;;;5.85;;
71490;SDS011;59307;50.060;9.150;2022-12-07T11:59:32;12.10;;;5.83;;
71490;SDS011;59307;50.060;9.150;2022-12-07T12:02:18;11.73;;;6.05;;
71490;SDS011;59307;50.060;9.150;2022-12-07T12:05:21;12.80;;;6.15;;
71490;SDS011;59307;50.060;9.150;2022-12-07T12:07:39;11.68;;;6.07;;
71490;SDS011;59307;50.060;9.150;2022-12-07T12:10:06;10.70;;;5.65;;
71490;SDS011;59307;50.060;9.150;2022-12-07T12:15:22;12.88;;;6.28;;
71490;SDS011;59307;50.060;9.150;2022-12-07T12:20:30;12.88;;;5.05;;
71490;SDS011;59307;50.060;9.150;2022-12-07T12:23:01;11.65;;;4.80;;
71490;SDS011;59307;50.060;9.150;2022-12-07T12:25:34;9.07;;;2.87;;
71490;SDS011;59307;50.060;9.150;2022-12-07T12:28:01;6.30;;;2.78;;
71490;SDS011;59307;50.060;9.150;2022-12-07T12:30:32;7.50;;;2.70;;
71490;SDS011;59307;50.060;9.150;2022-12-07T12:33:04;6.78;;;2.80;;
71490;SDS011;59307;50.060;9.150;2022-12-07T12:35:34;6.40;;;2.30;;
71490;SDS011;59307;50.060;9.150;2022-12-07T12:40:44;3.22;;;1.50;;
71490;SDS011;59307;50.060;9.150;2022-12-07T12:43:39;4.60;;;1.70;;
71490;SDS011;59307;50.060;9.150;2022-12-07T12:48:41;3.70;;;1.80;;
71490;SDS011;59307;50.060;9.150;2022-12-07T12:51:35;5.57;;;2.20;;
71490;SDS011;59307;50.060;9.150;2022-12-07T12:54:04;6.85;;;2.10;;
71490;SDS011;59307;50.060;9.150;2022-12-07T12:56:52;8.43;;;2.10;;
71490;SDS011;59307;50.060;9.150;2022-12-07T12:59:29;5.03;;;2.08;;
71490;SDS011;59307;50.060;9.150;2022-12-07T13:01:56;7.13;;;2.30;;
71490;SDS011;59307;50.060;9.150;2022-12-07T13:04:36;5.07;;;2.30;;
71490;SDS011;59307;50.060;9.150;2022-12-07T13:07:03;7.03;;;3.13;;
71490;SDS011;59307;50.060;9.150;2022-12-07T13:09:29;6.57;;;2.80;;
71490;SDS011;59307;50.060;9.150;2022-12-07T13:11:58;7.30;;;2.47;;
71490;SDS011;59307;50.060;9.150;2022-12-07T13:17:02;11.75;;;4.10;;
71490;SDS011;59307;50.060;9.150;2022-12-07T13:24:58;9.48;;;3.95;;
71490;SDS011;59307;50.060;9.150;2022-12-07T13:27:24;9.13;;;4.03;;
71490;SDS011;59307;50.060;9.150;2022-12-07T13:29:50;11.95;;;4.30;;
71490;SDS011;59307;50.060;9.150;2022-12-07T13:32:26;8.87;;;3.97;;
71490;SDS011;59307;50.060;9.150;2022-12-07T13:34:51;9.05;;;4.40;;
71490;SDS011;59307;50.060;9.150;2022-12-07T13:37:27;9.90;;;3.73;;
71490;SDS011;59307;50.060;9.150;2022-12-07T13:39:54;7.70;;;3.72;;
71490;SDS011;59307;50.060;9.150;2022-12-07T13:42:22;9.53;;;4.10;;
71490;SDS011;59307;50.060;9.150;2022-12-07T13:44:49;10.10;;;4.40;;
71490;SDS011;59307;50.060;9.150;2022-12-07T13:47:20;9.67;;;4.10;;
71490;SDS011;59307;50.060;9.150;2022-12-07T13:49:51;11.10;;;4.20;;
71490;SDS011;59307;50.060;9.150;2022-12-07T13:54:48;9.80;;;4.50;;
71490;SDS011;59307;50.060;9.150;2022-12-07T13:57:15;10.40;;;4.10;;
71490;SDS011;59307;50.060;9.150;2022-12-07T13:59:40;13.67;;;4.50;;
71490;SDS011;59307;50.060;9.150;2022-12-07T14:02:18;9.53;;;4.10;;
71490;SDS011;59307;50.060;9.150;2022-12-07T14:04:45;9.50;;;4.53;;
71490;SDS011;59307;50.060;9.150;2022-12-07T14:07:20;6.40;;;3.20;;
71490;SDS011;59307;50.060;9.150;2022-12-07T14:09:59;8.80;;;3.85;;
71490;SDS011;59307;50.060;9.150;2022-12-07T14:12:24;7.10;;;3.22;;
71490;SDS011;59307;50.060;9.150;2022-12-07T14:14:50;6.90;;;2.88;;
71490;SDS011;59307;50.060;9.150;2022-12-07T14:17:17;8.27;;;2.77;;
71490;SDS011;59307;50.060;9.150;2022-12-07T14:22:09;7.20;;;2.70;;
71490;SDS011;59307;50.060;9.150;2022-12-07T14:24:42;7.57;;;2.60;;
71490;SDS011;59307;50.060;9.150;2022-12-07T14:27:21;8.40;;;2.50;;
71490;SDS011;59307;50.060;9.150;2022-12-07T14:29:46;5.20;;;2.58;;
71490;SDS011;59307;50.060;9.150;2022-12-07T14:32:25;6.73;;;2.37;;
71490;SDS011;59307;50.060;9.150;2022-12-07T14:34:57;7.72;;;3.25;;
71490;SDS011;59307;50.060;9.150;2022-12-07T14:37:23;7.53;;;3.10;;
71490;SDS011;59307;50.060;9.150;2022-12-07T14:39:48;7.43;;;3.10;;
71490;SDS011;59307;50.060;9.150;2022-12-07T14:42:14;7.30;;;3.20;;
71490;SDS011;59307;50.060;9.150;2022-12-07T14:44:39;6.60;;;2.77;;
71490;SDS011;59307;50.060;9.150;2022-12-07T14:47:04;8.93;;;2.67;;
71490;SDS011;59307;50.060;9.150;2022-12-07T14:49:29;6.40;;;2.40;;
71490;SDS011;59307;50.060;9.150;2022-12-07T14:51:54;7.67;;;2.53;;
71490;SDS011;59307;50.060;9.150;2022-12-07T14:54:20;5.13;;;2.17;;
71490;SDS011;59307;50.060;9.150;2022-12-07T14:56:46;6.27;;;2.27;;
71490;SDS011;59307;50.060;9.150;2022-12-07T14:59:16;8.88;;;2.35;;
71490;SDS011;59307;50.060;9.150;2022-12-07T15:01:41;4.32;;;2.10;;
71490;SDS011;59307;50.060;9.150;2022-12-07T15:04:06;5.27;;;2.20;;
71490;SDS011;59307;50.060;9.150;2022-12-07T15:06:32;10.50;;;2.40;;
71490;SDS011;59307;50.060;9.150;2022-12-07T15:08:57;6.97;;;2.20;;
71490;SDS011;59307;50.060;9.150;2022-12-07T15:11:22;11.50;;;4.97;;
71490;SDS011;59307;50.060;9.150;2022-12-07T15:13:47;10.60;;;5.30;;
71490;SDS011;59307;50.060;9.150;2022-12-07T15:16:31;12.48;;;5.18;;
71490;SDS011;59307;50.060;9.150;2022-12-07T15:18:56;8.97;;;4.20;;
71490;SDS011;59307;50.060;9.150;2022-12-07T15:21:21;11.93;;;4.97;;
71490;SDS011;59307;50.060;9.150;2022-12-07T15:23:46;12.63;;;5.57;;
71490;SDS011;59307;50.060;9.150;2022-12-07T15:26:12;25.77;;;11.53;;
71490;SDS011;59307;50.060;9.150;2022-12-07T15:28:38;10.90;;;5.13;;
71490;SDS011;59307;50.060;9.150;2022-12-07T15:31:03;11.13;;;5.30;;
71490;SDS011;59307;50.060;9.150;2022-12-07T15:33:29;13.03;;;5.73;;
71490;SDS011;59307;50.060;9.150;2022-12-07T15:35:54;10.47;;;5.33;;
71490;SDS011;59307;50.060;9.150;2022-12-07T15:38:19;16.37;;;5.83;;
71490;SDS011;59307;50.060;9.150;2022-12-07T15:40:48;10.50;;;5.70;;
71490;SDS011;59307;50.060;9.150;2022-12-07T15:43:13;14.77;;;5.28;;
71490;SDS011;59307;50.060;9.150;2022-12-07T15:45:58;12.38;;;5.40;;
71490;SDS011;59307;50.060;9.150;2022-12-07T15:48:24;14.80;;;5.40;;
71490;SDS011;59307;50.060;9.150;2022-12-07T15:50:49;15.17;;;5.37;;
71490;SDS011;59307;50.060;9.150;2022-12-07T15:53:14;10.00;;;5.20;;
71490;SDS011;59307;50.060;9.150;2022-12-07T15:55:40;9.13;;;4.40;;
71490;SDS011;59307;50.060;9.150;2022-12-07T15:58:05;11.80;;;5.50;;
71490;SDS011;59307;50.060;9.150;2022-12-07T16:00:30;16.23;;;7.27;;
71490;SDS011;59307;50.060;9.150;2022-12-07T16:02:55;12.17;;;5.07;;
71490;SDS011;59307;50.060;9.150;2022-12-07T16:05:20;16.83;;;6.30;;
71490;SDS011;59307;50.060;9.150;2022-12-07T16:07:46;14.50;;;5.63;;